Ivanovo, Russia
Current Conditions -  °F | °C
As of 12:00 PM on Thursday 23 Oct 2014 (Local Time) from UUDL Reporting Station
Scattered Clouds Scattered Clouds  
Wind Chill:   Ceiling: Unl
Heat Index: 18°   Visibility: 6mi
Dew Point:   Wind: 11mph
Humidity: 68%   Direction: 310°NW
Pressure: 30.21"   Gusts: NA
Location:  57.01°N, 40.99°E
Report Text: UUDL 230900Z 31005MPS 9999 SCT030 M08/M13 Q1023 NOSIG RMKQFE758 23850340
Loading
Personal Weather Stations






























Interactive Weather Map
Tropical Storm Tracking
New forecast layout! Learn more

10-Day Weather Forecast

Advertisements
Track Severe Weather on mobile